KK4XZ Weather Reports


Display with metric or nautical units.
time (UTC)temp
F
wind
direction
speed
MPH
gust
MPH
rain 1hr
in
rain 24hr
in
rain mn
in
humidity
%
barometer
mb
20201130200717 68 251 4.0 15.0 0.00 2.21 0.31 53 1001.1
20201130195646 69 239 4.0 12.0 0.00 2.21 0.31 53 1000.7
20201130194644 69 224 3.0 12.0 0.00 2.21 0.31 47 1000.7
20201130193644 69 279 3.0 12.0 0.00 2.21 0.31 47 1000.7
20201130192643 70 269 4.0 19.0 0.00 2.21 0.31 46 1000.4
20201130191643 70 269 4.0 19.0 0.00 2.21 0.31 52 1000.4
20201130190557 70 252 5.0 16.0 0.00 2.21 0.31 51 1000.4
20201130185558 70 254 5.0 16.0 0.00 2.21 0.31 52 1000.4
20201130184522 70 228 4.0 16.0 0.00 2.21 0.31 63 1000.4
20201130183435 70 241 5.0 16.0 0.00 2.21 0.31 68 1000.0
20201130182334 70 197 5.0 18.0 0.00 2.21 0.31 69 1000.0
20201130181315 70 230 5.0 18.0 0.00 2.21 0.31 69 1000.0
20201130180305 70 217 8.0 16.0 0.00 2.21 0.31 69 1000.4
20201130175307 70 237 7.0 18.0 0.00 2.21 0.31 68 1000.4
20201130174301 70 248 8.0 18.0 0.00 2.21 0.31 69 1000.4
20201130173213 71 223 7.0 18.0 0.00 2.21 0.31 71 1000.4
20201130172113 71 229 6.0 16.0 0.00 2.21 0.31 71 1000.4
20201130171114 71 206 5.0 19.0 0.00 2.21 0.31 73 1000.7
20201130170041 70 253 5.0 19.0 0.00 2.21 0.31 73 1001.1
20201130164940 70 238 4.0 24.0 0.00 2.21 0.31 73 1001.1
20201130163910 70 206 6.0 24.0 0.00 2.21 0.31 72 1001.4
20201130162913 70 226 5.0 15.0 0.00 2.21 0.31 73 1001.4
20201130161909 69 249 6.0 15.0 0.00 2.21 0.31 74 1001.7
20201130160908 69 210 5.0 15.0 0.03 2.21 0.31 76 1002.1
20201130155821 68 219 6.0 21.0 0.04 2.21 0.31 76 1002.4
20201130154818 68 221 5.0 21.0 0.05 2.21 0.31 77 1002.7
20201130153817 67 237 4.0 13.0 0.08 2.21 0.31 77 1002.7
20201130152731 67 246 5.0 19.0 0.11 2.21 0.31 77 1003.1
20201130151632 68 248 5.0 19.0 0.11 2.21 0.31 76 1003.8
20201130150628 69 239 9.0 24.0 0.08 2.18 0.28 76 1003.1
20201130145627 69 234 5.0 24.0 0.07 2.17 0.27 76 1003.1
20201130144540 69 229 3.0 12.0 0.05 2.15 0.25 76 1003.1
20201130143543 70 229 2.0 10.0 0.02 2.12 0.22 74 1002.7
20201130142538 70 244 5.0 15.0 0.00 2.10 0.20 73 1003.1
20201130141538 71 235 5.0 15.0 0.00 2.10 0.20 73 1003.1
20201130140537 70 221 4.0 15.0 0.00 2.10 0.20 73 1003.1
20201130135437 70 179 3.0 13.0 0.00 2.10 0.20 73 1003.4
20201130134411 70 188 3.0 7.0 0.00 2.10 0.20 72 1003.4
20201130133406 70 237 2.0 7.0 0.00 2.10 0.20 72 1003.8
20201130132404 70 219 3.0 9.0 0.00 2.10 0.20 72 1003.4
20201130131405 70 189 4.0 15.0 0.00 2.10 0.20 73 1003.1
20201130130316 70 163 6.0 18.0 0.00 2.10 0.20 73 1003.4
20201130125326 70 161 5.0 18.0 0.00 2.10 0.20 73 1003.4
20201130124314 70 177 4.0 12.0 0.00 2.10 0.20 73 1003.8
20201130123216 70 192 4.0 10.0 0.00 2.10 0.20 73 1004.1
20201130122143 70 239 4.0 15.0 0.00 2.10 0.20 73 1004.1
20201130121110 70 201 4.0 15.0 0.00 2.10 0.20 73 1004.1
20201130120110 70 240 4.0 12.0 0.00 2.10 0.20 74 1004.4
20201130115110 70 239 5.0 12.0 0.00 2.10 0.20 74 1004.8
20201130114111 70 245 4.0 15.0 0.00 2.10 0.20 74 1004.8
20201130113109 70 243 4.0 15.0 0.00 2.10 0.20 75 1004.4
20201130112021 70 193 2.0 12.0 0.00 2.10 0.20 75 1004.4
20201130111019 70 215 3.0 12.0 0.00 2.10 0.20 76 1004.4
20201130110040 69 204 2.0 12.0 0.00 2.10 0.20 77 1004.8
20201130105020 69 195 2.0 12.0 0.00 2.10 0.20 77 1004.8
20201130104028 69 194 3.0 10.0 0.00 2.10 0.20 77 1004.8
20201130102917 69 191 2.0 10.0 0.00 2.10 0.20 77 1004.8
20201130101916 69 199 2.0 10.0 0.00 2.10 0.20 78 1005.1
20201130100828 69 158 3.0 7.0 0.00 2.10 0.20 78 1005.5
20201130095731 68 183 2.0 7.0 0.00 2.10 0.20 79 1005.5
20201130094728 68 175 3.0 6.0 0.00 2.10 0.20 79 1005.1
20201130093644 68 209 2.0 7.0 0.01 2.10 0.20 79 1004.8
20201130092606 68 175 2.0 7.0 0.04 2.10 0.20 79 1005.1
20201130091534 68 166 3.0 7.0 0.06 2.10 0.20 79 1005.5
20201130090534 68 184 2.0 6.0 0.06 2.10 0.20 79 1005.5
20201130085533 68 159 3.0 5.0 0.07 2.10 0.20 79 1005.8
20201130084534 68 172 2.0 6.0 0.08 2.10 0.20 78 1005.8
20201130083532 68 168 2.0 6.0 0.08 2.09 0.19 79 1006.5
20201130082444 68 252 3.0 7.0 0.04 2.05 0.15 78 1006.8
20201130081443 68 244 2.0 7.0 0.03 2.04 0.14 78 1007.1
20201130080443 68 261 3.0 7.0 0.02 2.03 0.13 78 1007.5
20201130075446 69 241 2.0 6.0 0.01 2.02 0.12 78 1007.8
20201130074441 69 243 3.0 7.0 0.00 2.01 0.11 78 1007.8
20201130073354 69 192 2.0 7.0 0.00 2.01 0.11 78 1008.2
20201130072353 69 220 2.0 7.0 0.01 2.01 0.11 78 1008.2
20201130071311 69 180 4.0 12.0 0.01 2.01 0.11 78 1008.5
20201130070205 69 171 4.0 12.0 0.02 2.01 0.11 78 1008.5
20201130065205 69 206 2.0 9.0 0.03 2.01 0.11 78 1008.5
20201130064204 69 187 3.0 13.0 0.04 2.01 0.11 78 1008.5
20201130063116 69 214 2.0 13.0 0.06 2.01 0.11 78 1008.5
20201130062049 69 207 2.0 13.0 0.08 2.00 0.10 78 1008.5
20201130061044 69 170 3.0 15.0 0.09 2.00 0.10 78 1008.8
20201130060044 69 172 5.0 15.0 0.09 1.99 0.09 78 1008.8
20201130055043 68 165 3.0 12.0 0.08 1.98 0.08 78 1009.2
20201130054044 68 175 4.0 12.0 0.08 1.97 0.07 79 1009.5
20201130052955 68 190 2.0 7.0 0.06 1.95 0.05 78 1009.9
20201130051954 68 163 2.0 7.0 0.03 1.92 0.02 78 1009.9
20201130050953 68 176 3.0 9.0 0.02 1.91 0.01 78 1010.2
20201130045956 67 144 2.0 9.0 0.01 1.90 0.00 78 1010.5
20201130044951 67 184 3.0 12.0 0.00 1.89 1.89 78 1010.9
20201130043851 67 168 4.0 12.0 0.04 1.89 1.89 78 1011.2
20201130042851 68 159 4.0 12.0 0.14 1.89 1.89 79 1011.2
20201130041803 68 156 3.0 12.0 0.17 1.89 1.89 78 1011.9
20201130040732 67 162 4.0 10.0 0.17 1.89 1.89 79 1011.9
20201130035700 67 166 3.0 13.0 0.18 1.89 1.89 79 1012.2
20201130034613 67 158 8.0 13.0 0.18 1.89 1.89 79 1012.9
20201130033517 66 169 4.0 7.0 0.06 1.77 1.77 80 1012.6
20201130032513 65 117 2.0 3.0 0.01 1.72 1.72 79 1012.6
20201130031424 65 8 2.0 5.0 0.01 1.72 1.72 79 1012.9
20201130030353 65 98 2.0 5.0 0.01 1.72 1.72 79 1012.9
20201130025305 65 91 2.0 5.0 0.01 1.71 1.71 79 1013.2
20201130024304 65 147 2.0 5.0 0.01 1.71 1.71 79 1013.6
20201130023214 65 67 2.0 10.0 0.01 1.71 1.71 79 1013.6
20201130022213 66 102 2.0 9.0 0.01 1.71 1.71 79 1013.6
20201130021214 66 115 2.0 12.0 0.02 1.71 1.71 79 1013.6
20201130020140 65 108 2.0 7.0 0.09 1.71 1.71 79 1013.9
20201130015141 65 147 2.0 6.0 0.14 1.70 1.70 79 1014.2
20201130014105 66 145 2.0 9.0 0.17 1.70 1.70 79 1014.2
20201130013101 66 168 3.0 10.0 0.21 1.70 1.70 79 1014.6
20201130012059 66 174 4.0 10.0 0.43 1.70 1.70 79 1014.2
20201130011059 65 170 3.0 6.0 0.57 1.69 1.69 79 1014.6
20201130010032 65 187 2.0 9.0 0.49 1.60 1.60 79 1014.6
20201130005024 65 165 3.0 9.0 0.45 1.55 1.55 79 1014.9
20201130004024 65 153 2.0 13.0 0.51 1.53 1.53 79 1014.9
20201130003022 65 171 3.0 13.0 0.48 1.49 1.49 79 1015.2
20201130002026 65 163 4.0 9.0 0.23 1.23 1.23 79 1015.2
20201130000921 65 191 2.0 6.0 0.13 1.12 1.12 80 1015.2
20201129235846 63 158 2.0 2.0 0.14 1.11 1.11 80 1015.6
20201129234814 63 299 2.0 2.0 0.10 1.06 1.06 79 1015.2
20201129233815 63 90 0.0 2.0 0.09 1.02 1.02 79 1015.2
20201129232815 62 90 2.0 2.0 0.09 1.01 1.01 79 1015.6
20201129231812 62 90 2.0 2.0 0.14 1.00 1.00 79 1015.6
20201129230727 62 90 0.0 3.0 0.62 0.98 0.98 79 1015.9
20201129225724 62 90 2.0 5.0 0.82 0.97 0.97 79 1015.9
20201129224725 62 81 2.0 5.0 0.89 0.96 0.96 79 1015.9
20201129223723 62 93 2.0 5.0 0.90 0.93 0.93 78 1015.9
20201129222635 62 76 2.0 6.0 0.91 0.92 0.92 78 1016.3
20201129221603 62 75 4.0 6.0 0.77 0.77 0.77 78 1016.6
20201129220531 62 95 2.0 5.0 0.30 0.30 0.30 77 1016.6
20201129215433 62 105 2.0 3.0 0.10 0.10 0.10 76 1016.6
20201129214344 63 100 2.0 3.0 0.05 0.05 0.05 75 1016.9
20201129213243 63 81 2.0 3.0 0.02 0.02 0.02 74 1016.9
20201129212212 64 349 0.0 5.0 0.01 0.01 0.01 73 1016.6
20201129211210 64 81 2.0 5.0 0.00 0.00 0.00 71 1016.6
20201129210210 64 81 3.0 6.0 0.00 0.00 0.00 71 1016.6
20201129205134 64 66 2.0 7.0 0.00 0.00 0.00 70 1016.6
20201129204100 64 84 2.0 6.0 0.00 0.00 0.00 69 1016.9
20201129203103 65 88 3.0 7.0 0.00 0.00 0.00 68 1016.9
20201129201959 65 80 2.0 7.0 0.00 0.00 0.00 68 1017.3